Time;durP1;ratioP1;P1;durP2;ratioP2;P2;SDS_P1;SDS_P2;PMS_P1;PMS_P2;Temp;Humidity;BMP_temperature;BMP_pressure;BME280_temperature;BME280_humidity;BME280_pressure;Samples;Min_cycle;Max_cycle;Signal;HPM_P1;HPM_P2
2022/01/26 00:00:54;;;;;;;14.20;4.47;;;;;;;-145.69;100.00;74095.59;5009713;28;20217;-76
2022/01/26 00:06:12;;;;;;;10.53;4.20;;;;;;;-145.69;100.00;74097.56;5011588;28;20208;-77
2022/01/26 00:08:39;;;;;;;9.63;3.50;;;;;;;-145.69;100.00;74105.53;5012086;28;20877;-77
2022/01/26 00:11:06;;;;;;;12.93;4.27;;;;;;;-145.69;100.00;74101.56;5012582;28;20443;-77
2022/01/26 00:13:32;;;;;;;8.63;3.47;;;;;;;-145.69;100.00;74101.56;5012554;28;20201;-77
2022/01/26 00:16:03;;;;;;;6.13;3.13;;;;;;;-145.69;100.00;74101.56;5012461;28;20631;-77
2022/01/26 00:18:33;;;;;;;11.80;3.63;;;;;;;-145.69;100.00;74105.53;5012206;28;20233;-77
2022/01/26 00:21:06;;;;;;;9.87;4.20;;;;;;;-145.69;100.00;74105.53;5014257;28;20604;-77
2022/01/26 00:23:51;;;;;;;9.90;3.93;;;;;;;-145.69;100.00;74105.53;5012519;28;20205;-77
2022/01/26 00:26:30;;;;;;;17.70;4.50;;;;;;;-145.69;100.00;74101.56;5012192;28;20196;-77
2022/01/26 00:40:10;;;;;;;13.33;4.80;;;;;;;-145.69;100.00;74101.56;5013996;28;20219;-76
2022/01/26 00:42:41;;;;;;;12.47;4.80;;;;;;;-145.69;100.00;74101.56;5012082;28;20295;-76
2022/01/26 00:45:10;;;;;;;9.93;4.40;;;;;;;-145.69;100.00;74123.47;5011906;28;20204;-76
2022/01/26 00:47:38;;;;;;;10.17;4.20;;;;;;;-145.69;100.00;74129.44;5011726;28;20329;-77
2022/01/26 00:50:09;;;;;;;11.20;4.10;;;;;;;-145.69;100.00;74145.38;5013205;28;20207;-76
2022/01/26 00:52:40;;;;;;;10.93;4.03;;;;;;;-145.69;100.00;74159.31;5031247;28;20718;-77
2022/01/26 00:55:10;;;;;;;6.60;3.33;;;;;;;-145.69;100.00;74163.28;5031207;28;20208;-77
2022/01/26 00:57:36;;;;;;;9.33;3.30;;;;;;;-145.69;100.00;74201.13;5031594;28;20211;-77
2022/01/26 01:00:06;;;;;;;7.33;3.43;;;;;;;-145.69;100.00;74225.03;5031185;28;20207;-77
2022/01/26 01:02:33;;;;;;;11.37;4.77;;;;;;;-145.69;100.00;74240.94;5031972;28;20200;-76
2022/01/26 01:05:07;;;;;;;9.87;4.17;;;;;;;-145.69;100.00;74244.94;5031185;28;20243;-77
2022/01/26 01:07:37;;;;;;;8.20;4.20;;;;;;;-145.69;100.00;74240.94;5031340;28;20208;-77
2022/01/26 01:10:04;;;;;;;12.63;4.67;;;;;;;-145.69;100.00;74240.94;5031259;28;20200;-77
2022/01/26 01:12:33;;;;;;;10.63;5.00;;;;;;;-145.69;100.00;74258.88;5031099;28;20218;-77
2022/01/26 01:14:59;;;;;;;16.27;4.87;;;;;;;-145.69;100.00;74284.75;5030975;28;20723;-77
2022/01/26 01:17:35;;;;;;;12.67;4.80;;;;;;;-145.69;100.00;74292.72;5031221;28;20211;-78
2022/01/26 01:20:14;;;;;;;14.83;5.07;;;;;;;-145.69;100.00;74302.69;5026799;28;20307;-77
2022/01/26 01:22:52;;;;;;;13.83;5.70;;;;;;;-145.69;100.00;74324.59;5011326;28;20232;-77
2022/01/26 01:26:06;;;;;;;16.03;5.60;;;;;;;-145.69;100.00;74330.56;5011080;28;20232;-76
2022/01/26 01:28:58;;;;;;;16.60;5.87;;;;;;;-145.69;100.00;74350.47;5011220;28;20590;-77
2022/01/26 01:31:40;;;;;;;17.10;5.93;;;;;;;-145.69;100.00;74338.53;5010113;28;20651;-77
2022/01/26 01:34:07;;;;;;;14.83;5.53;;;;;;;-145.69;100.00;74298.69;5010957;28;20205;-76
2022/01/26 01:36:38;;;;;;;17.37;5.77;;;;;;;-145.69;100.00;74316.63;5011242;28;20207;-78
2022/01/26 01:39:07;;;;;;;15.83;6.13;;;;;;;-145.69;100.00;74326.56;5010992;28;20655;-77
2022/01/26 01:41:34;;;;;;;12.33;5.00;;;;;;;-145.69;100.00;74328.56;5011405;28;20544;-77
2022/01/26 01:44:00;;;;;;;11.13;4.70;;;;;;;-145.69;100.00;74348.47;5010924;28;20201;-77
2022/01/26 01:46:27;;;;;;;11.57;4.67;;;;;;;-145.69;100.00;74352.47;5010698;28;20208;-77
2022/01/26 01:48:54;;;;;;;9.83;4.23;;;;;;;-145.69;100.00;74294.72;5010664;28;20703;-77
2022/01/26 01:51:27;;;;;;;8.40;3.83;;;;;;;-145.69;100.00;74288.75;5023768;28;20192;-77
2022/01/26 01:53:55;;;;;;;9.73;4.60;;;;;;;-145.69;100.00;74280.78;5030642;28;20708;-77
2022/01/26 01:56:25;;;;;;;12.57;3.80;;;;;;;-145.69;100.00;74280.78;5030353;28;20242;-76
2022/01/26 01:58:52;;;;;;;6.23;3.57;;;;;;;-145.69;100.00;74300.69;5030262;28;20200;-77
2022/01/26 02:01:19;;;;;;;11.03;3.10;;;;;;;-145.69;100.00;74312.63;5028243;28;20208;-77
2022/01/26 02:03:45;;;;;;;8.50;3.37;;;;;;;-145.69;100.00;74320.59;5030388;28;20674;-77
2022/01/26 02:06:12;;;;;;;9.93;3.80;;;;;;;-145.69;100.00;74328.56;5030348;28;20204;-77
2022/01/26 02:08:40;;;;;;;9.97;4.17;;;;;;;-145.69;100.00;74320.59;5030226;28;20228;-77
2022/01/26 02:11:10;;;;;;;11.97;4.57;;;;;;;-145.69;100.00;74264.84;5030180;28;20211;-76
2022/01/26 02:13:45;;;;;;;10.97;3.97;;;;;;;-145.69;100.00;74268.81;5030088;28;20277;-77
2022/01/26 02:16:19;;;;;;;12.70;5.10;;;;;;;-145.69;100.00;74217.06;5030382;28;20203;-76
2022/01/26 02:19:01;;;;;;;16.10;5.00;;;;;;;-145.69;100.00;74211.06;5030171;28;20232;-76
2022/01/26 02:21:54;;;;;;;14.90;5.83;;;;;;;-145.69;100.00;74197.13;5015507;28;20686;-77
2022/01/26 02:52:06;;;;;;;9.83;4.20;;;;;;;-145.69;100.00;74288.75;5033351;28;20202;-77
2022/01/26 02:54:53;;;;;;;16.80;5.60;;;;;;;-145.69;100.00;74290.72;5033176;28;20291;-77
2022/01/26 02:57:37;;;;;;;10.17;4.00;;;;;;;-145.69;100.00;74322.59;5033088;28;20729;-77
2022/01/26 03:00:18;;;;;;;20.93;5.50;;;;;;;-145.69;100.00;74316.63;5033304;28;20212;-77
2022/01/26 03:02:50;;;;;;;24.20;7.90;;;;;;;-145.69;100.00;74280.78;5033329;28;20199;-77
2022/01/26 03:05:20;;;;;;;27.63;8.20;;;;;;;-145.69;100.00;74284.75;5033161;28;20200;-77
2022/01/26 03:07:52;;;;;;;18.87;5.70;;;;;;;-145.69;100.00;74272.81;5033087;28;20204;-77
2022/01/26 03:10:24;;;;;;;10.50;3.83;;;;;;;-145.69;100.00;74280.78;5021163;28;20567;-78
2022/01/26 03:12:56;;;;;;;15.50;5.17;;;;;;;-145.69;100.00;74292.72;5013354;28;20205;-77
2022/01/26 03:15:27;;;;;;;15.47;5.43;;;;;;;-145.69;100.00;74264.84;5013167;28;20197;-77
2022/01/26 03:18:21;;;;;;;19.07;5.17;;;;;;;-145.69;100.00;74278.78;5013111;28;20622;-77
2022/01/26 03:20:49;;;;;;;19.63;6.90;;;;;;;-145.69;100.00;74276.78;5013178;28;20285;-77
2022/01/26 03:29:12;;;;;;;23.57;7.77;;;;;;;-145.69;100.00;74290.72;5017963;28;20235;-77
2022/01/26 03:34:21;;;;;;;17.17;6.50;;;;;;;-145.69;100.00;74268.81;5012150;28;20205;-77
2022/01/26 03:36:51;;;;;;;17.80;6.70;;;;;;;-145.69;100.00;74284.75;5012920;28;20209;-77
2022/01/26 03:39:20;;;;;;;16.63;5.93;;;;;;;-145.69;100.00;74314.63;5015923;28;20634;-77
2022/01/26 03:41:53;;;;;;;25.63;8.53;;;;;;;-145.69;100.00;74310.63;5033055;28;20207;-77
2022/01/26 03:44:19;;;;;;;17.53;7.30;;;;;;;-145.69;100.00;74284.75;5032617;28;20651;-77
2022/01/26 03:46:48;;;;;;;16.10;7.33;;;;;;;-145.69;100.00;74280.78;5033109;28;20201;-77
2022/01/26 03:49:14;;;;;;;18.87;7.93;;;;;;;-145.69;100.00;74284.75;5032355;28;20224;-77
2022/01/26 03:51:42;;;;;;;27.07;8.80;;;;;;;-145.69;100.00;74318.59;5032626;28;20200;-77
2022/01/26 03:54:10;;;;;;;26.47;8.57;;;;;;;-145.69;100.00;74284.75;5031529;28;20227;-77
2022/01/26 03:56:36;;;;;;;21.70;7.73;;;;;;;-145.69;100.00;74280.78;5032633;28;20200;-77
2022/01/26 03:59:05;;;;;;;29.23;9.00;;;;;;;-145.69;100.00;74262.84;5032400;28;20196;-77
2022/01/26 04:01:33;;;;;;;24.07;9.50;;;;;;;-145.69;100.00;74268.81;5032139;28;20204;-77
2022/01/26 04:03:59;;;;;;;24.33;8.53;;;;;;;-145.69;100.00;74286.75;5032046;28;20204;-77
2022/01/26 04:06:27;;;;;;;24.40;8.50;;;;;;;-145.69;100.00;74302.69;5032114;28;20697;-77
2022/01/26 04:08:53;;;;;;;24.67;9.43;;;;;;;-145.69;100.00;74302.69;5029949;28;20594;-77
2022/01/26 04:11:33;;;;;;;27.47;9.87;;;;;;;-145.69;100.00;74306.66;5012500;28;20204;-77
2022/01/26 04:14:01;;;;;;;35.47;10.33;;;;;;;-145.69;100.00;74316.63;5012285;28;20211;-77
2022/01/26 04:16:29;;;;;;;31.43;10.10;;;;;;;-145.69;100.00;74308.66;5012219;28;20296;-77
2022/01/26 04:18:56;;;;;;;23.97;8.00;;;;;;;-145.69;100.00;74334.53;5012318;28;20599;-77
2022/01/26 04:21:31;;;;;;;22.47;8.33;;;;;;;-145.69;100.00;74348.47;5012222;28;20236;-77
2022/01/26 04:24:02;;;;;;;32.20;10.93;;;;;;;-145.69;100.00;74308.66;5012240;28;20250;-77
2022/01/26 04:26:33;;;;;;;37.83;11.40;;;;;;;-145.69;100.00;74318.59;5012381;28;20635;-76
2022/01/26 04:29:04;;;;;;;38.17;12.67;;;;;;;-145.69;100.00;74336.53;5011997;28;20634;-77
2022/01/26 04:31:32;;;;;;;38.60;11.87;;;;;;;-145.69;100.00;74358.44;5011527;28;20303;-77
2022/01/26 04:33:59;;;;;;;32.60;9.60;;;;;;;-145.69;100.00;74326.56;5012427;28;20614;-77
2022/01/26 04:36:31;;;;;;;26.07;8.97;;;;;;;-145.69;100.00;74326.56;5012018;28;20216;-78
2022/01/26 04:39:02;;;;;;;22.83;7.70;;;;;;;-145.69;100.00;74348.47;5014189;28;20240;-77
2022/01/26 04:41:34;;;;;;;26.80;9.17;;;;;;;-145.69;100.00;74372.38;5031693;28;20204;-78
2022/01/26 04:44:06;;;;;;;30.53;9.67;;;;;;;-145.69;100.00;74352.47;5031629;28;20211;-77
2022/01/26 04:46:34;;;;;;;24.13;8.70;;;;;;;-145.69;100.00;74356.44;5028391;28;20257;-77
2022/01/26 04:49:00;;;;;;;25.40;7.77;;;;;;;-145.69;100.00;74342.50;5031154;28;20220;-77
2022/01/26 04:51:27;;;;;;;28.80;9.63;;;;;;;-145.69;100.00;74340.50;5031373;28;20663;-78
2022/01/26 04:53:53;;;;;;;32.67;10.37;;;;;;;-145.69;100.00;74354.44;5031319;28;20200;-77
2022/01/26 04:56:20;;;;;;;40.83;12.03;;;;;;;-145.69;100.00;74372.38;5031566;28;20196;-77
2022/01/26 04:58:46;;;;;;;36.30;11.67;;;;;;;-145.69;100.00;74320.59;5031380;28;20204;-76
2022/01/26 05:01:13;;;;;;;33.40;11.50;;;;;;;-145.69;100.00;74328.56;5031529;28;20208;-77
2022/01/26 05:03:40;;;;;;;49.33;14.10;;;;;;;-145.69;100.00;74336.53;5031458;28;20205;-77
2022/01/26 05:06:07;;;;;;;49.37;13.20;;;;;;;-145.69;100.00;74328.56;5031072;28;20200;-77
2022/01/26 05:08:33;;;;;;;41.07;12.07;;;;;;;-145.69;100.00;74342.50;5030933;28;20204;-77
2022/01/26 05:11:01;;;;;;;46.07;13.20;;;;;;;-145.69;100.00;74334.53;5012289;28;20201;-77
2022/01/26 05:13:28;;;;;;;34.30;13.00;;;;;;;-145.69;100.00;74332.53;5011549;28;20254;-77
2022/01/26 05:15:54;;;;;;;45.73;13.67;;;;;;;-145.69;100.00;74296.69;5011484;28;20571;-76
2022/01/26 05:18:23;;;;;;;31.97;11.27;;;;;;;-145.69;100.00;74324.59;5011496;28;20225;-77
2022/01/26 05:20:51;;;;;;;33.87;11.93;;;;;;;-145.69;100.00;74324.59;5011168;28;20189;-76
2022/01/26 05:23:17;;;;;;;33.83;12.40;;;;;;;-145.69;100.00;74344.50;5011304;28;20208;-76
2022/01/26 05:25:44;;;;;;;35.73;11.50;;;;;;;-145.69;100.00;74374.38;5011482;28;20204;-77
2022/01/26 05:28:10;;;;;;;36.60;10.97;;;;;;;-145.69;100.00;74352.47;5011358;28;20254;-77
2022/01/26 05:30:37;;;;;;;35.83;11.50;;;;;;;-145.69;100.00;74364.41;5011211;28;20229;-77
2022/01/26 05:33:04;;;;;;;41.17;14.23;;;;;;;-145.69;100.00;74330.56;5011262;28;20627;-78
2022/01/26 05:35:31;;;;;;;30.70;10.23;;;;;;;-145.69;100.00;74320.59;5010868;28;20299;-77
2022/01/26 05:37:59;;;;;;;35.30;11.80;;;;;;;-145.69;100.00;74310.63;5011205;28;20683;-77
2022/01/26 05:40:26;;;;;;;38.03;12.90;;;;;;;-145.69;100.00;74308.66;5027465;28;20200;-77
2022/01/26 05:42:53;;;;;;;55.40;16.03;;;;;;;-145.69;100.00;74296.69;5030781;28;20215;-77
2022/01/26 05:45:26;;;;;;;45.50;13.13;;;;;;;-145.69;100.00;74316.63;5030561;28;20204;-76
2022/01/26 05:47:53;;;;;;;42.60;12.70;;;;;;;-145.69;100.00;74322.59;5030738;28;20204;-77
2022/01/26 05:50:19;;;;;;;44.90;14.53;;;;;;;-145.69;100.00;74314.63;5030330;28;20659;-77
2022/01/26 05:52:46;;;;;;;47.17;15.17;;;;;;;-145.69;100.00;74312.63;5030813;28;20657;-77
2022/01/26 05:55:14;;;;;;;49.70;15.37;;;;;;;-145.69;100.00;74330.56;5030626;28;20197;-77
2022/01/26 05:57:41;;;;;;;48.17;12.30;;;;;;;-145.69;100.00;74330.56;5030382;28;20567;-77
2022/01/26 06:00:08;;;;;;;33.43;11.33;;;;;;;-145.69;100.00;74340.50;5030408;28;20204;-77
2022/01/26 06:02:35;;;;;;;41.47;11.10;;;;;;;-145.69;100.00;74348.47;5030202;28;20204;-77
2022/01/26 06:05:01;;;;;;;36.90;11.83;;;;;;;-145.69;100.00;74364.41;5016140;28;20556;-77
2022/01/26 06:07:30;;;;;;;38.80;13.33;;;;;;;-145.69;100.00;74348.47;5010484;28;20590;-77
2022/01/26 06:09:56;;;;;;;37.23;11.53;;;;;;;-145.69;100.00;74370.38;5010441;28;20228;-76
2022/01/26 06:12:24;;;;;;;42.40;12.60;;;;;;;-145.69;100.00;74348.47;5010744;28;20204;-77
2022/01/26 06:14:52;;;;;;;41.53;13.23;;;;;;;-145.69;100.00;74332.53;5010491;28;20261;-77
2022/01/26 06:17:18;;;;;;;49.23;14.30;;;;;;;-145.69;100.00;74332.53;5009908;28;20690;-77
2022/01/26 06:19:45;;;;;;;63.73;15.93;;;;;;;-145.69;100.00;74344.50;5010269;28;20263;-77
2022/01/26 06:22:11;;;;;;;56.10;17.13;;;;;;;-145.69;100.00;74312.63;5010429;28;20209;-77
2022/01/26 06:24:38;;;;;;;57.20;15.77;;;;;;;-145.69;100.00;74312.63;5010539;28;20228;-77
2022/01/26 06:27:05;;;;;;;50.50;16.50;;;;;;;-145.69;100.00;74320.59;5010486;28;20201;-77
2022/01/26 06:29:33;;;;;;;46.60;15.70;;;;;;;-145.69;100.00;74344.50;5010332;28;20225;-77
2022/01/26 06:31:59;;;;;;;42.50;13.77;;;;;;;-145.69;100.00;74368.38;5010635;28;20231;-77
2022/01/26 06:34:26;;;;;;;40.57;13.30;;;;;;;-145.69;100.00;74364.41;5019213;28;20203;-76
2022/01/26 06:36:52;;;;;;;51.43;15.03;;;;;;;-145.69;100.00;74350.47;5030178;28;20249;-77
2022/01/26 06:39:19;;;;;;;45.87;13.97;;;;;;;-145.69;100.00;74346.47;5029919;28;20281;-77
2022/01/26 06:41:50;;;;;;;51.60;16.30;;;;;;;-145.69;100.00;74320.59;5030052;28;20204;-77
2022/01/26 06:44:22;;;;;;;74.37;18.90;;;;;;;-145.69;100.00;74320.59;5029648;28;20196;-77
2022/01/26 06:46:59;;;;;;;58.87;17.67;;;;;;;-145.69;100.00;74322.59;5030029;28;20204;-77
2022/01/26 06:49:31;;;;;;;60.20;16.93;;;;;;;-145.69;100.00;74332.53;5029820;28;20288;-77
2022/01/26 06:51:58;;;;;;;63.97;19.40;;;;;;;-145.69;100.00;74326.56;5026330;28;20197;-76
2022/01/26 06:54:25;;;;;;;56.57;16.37;;;;;;;-145.69;100.00;74312.63;5029578;28;20204;-77
2022/01/26 06:56:52;;;;;;;65.17;16.23;;;;;;;-145.69;100.00;74312.63;5029558;28;20200;-77
2022/01/26 06:59:18;;;;;;;50.13;15.70;;;;;;;-145.69;100.00;74340.50;5029570;28;20200;-77
2022/01/26 07:01:45;;;;;;;46.60;14.80;;;;;;;-145.69;100.00;74350.47;5029778;28;20200;-76
2022/01/26 07:04:13;;;;;;;54.72;19.48;;;;;;;-145.69;100.00;74356.44;5019855;28;20442;-77
2022/01/26 07:06:39;;;;;;;46.47;16.43;;;;;;;-145.69;100.00;74340.50;5010075;28;20204;-78
2022/01/26 07:09:06;;;;;;;52.87;16.67;;;;;;;-145.69;100.00;74322.59;5009695;28;20204;-77
2022/01/26 07:11:32;;;;;;;62.67;16.50;;;;;;;-145.69;100.00;74318.59;5009759;28;20225;-77
2022/01/26 07:14:01;;;;;;;50.97;16.30;;;;;;;-145.69;100.00;74326.56;5009949;28;20201;-77
2022/01/26 07:22:08;;;;;;;50.60;15.17;;;;;;;-145.69;100.00;74332.53;5008900;28;20692;-76
2022/01/26 07:24:35;;;;;;;55.90;17.73;;;;;;;-145.69;100.00;74312.63;5009778;28;20201;-77
2022/01/26 07:27:01;;;;;;;57.73;17.23;;;;;;;-145.69;100.00;74298.69;5009877;28;20201;-76
2022/01/26 07:29:28;;;;;;;60.50;16.83;;;;;;;-145.69;100.00;74304.66;5010094;28;20283;-77
2022/01/26 07:31:54;;;;;;;47.93;16.63;;;;;;;-145.69;100.00;74312.63;5013010;28;20207;-77
2022/01/26 07:34:23;;;;;;;48.53;16.13;;;;;;;-145.69;100.00;74308.66;5023083;28;20652;-76
2022/01/26 07:36:52;;;;;;;55.33;16.63;;;;;;;-145.69;100.00;74296.69;5032779;28;20215;-77
2022/01/26 07:39:29;;;;;;;64.07;17.60;;;;;;;-145.69;100.00;74286.75;5032515;28;20208;-77
2022/01/26 07:41:56;;;;;;;52.00;16.67;;;;;;;-145.69;100.00;74280.78;5032629;28;20729;-77
2022/01/26 07:44:22;;;;;;;47.53;15.90;;;;;;;-145.69;100.00;74290.72;5032274;28;20662;-77
2022/01/26 07:46:49;;;;;;;55.07;15.93;;;;;;;-145.69;100.00;74290.72;5032384;28;20204;-77
2022/01/26 07:49:15;;;;;;;54.23;15.93;;;;;;;-145.69;100.00;74294.72;5032353;28;20204;-76
2022/01/26 07:51:43;;;;;;;45.57;14.30;;;;;;;-145.69;100.00;74284.75;5032456;28;20268;-77
2022/01/26 07:54:10;;;;;;;47.13;16.27;;;;;;;-145.69;100.00;74268.81;5032498;28;20199;-77
2022/01/26 07:56:36;;;;;;;42.23;14.83;;;;;;;-145.69;100.00;74248.91;5032462;28;20200;-77
2022/01/26 07:59:03;;;;;;;53.50;16.67;;;;;;;-145.69;100.00;74244.94;5032291;28;20210;-76
2022/01/26 08:01:30;;;;;;;52.00;15.17;;;;;;;-145.69;100.00;74252.91;5032219;28;20602;-77
2022/01/26 08:03:57;;;;;;;44.93;14.13;;;;;;;-145.69;100.00;74268.81;5025055;28;20197;-77
2022/01/26 08:06:23;;;;;;;53.20;15.43;;;;;;;-145.69;100.00;74260.84;5012537;28;20201;-77
2022/01/26 08:08:51;;;;;;;46.97;14.93;;;;;;;-145.69;100.00;74260.84;5012288;28;20593;-77
2022/01/26 08:11:17;;;;;;;47.87;14.63;;;;;;;-145.69;100.00;74260.84;5012291;28;20585;-77
2022/01/26 08:13:44;;;;;;;60.63;15.87;;;;;;;-145.69;100.00;74246.91;5012249;28;20232;-76
2022/01/26 08:16:10;;;;;;;42.03;14.47;;;;;;;-145.69;100.00;74246.91;5012199;28;20667;-78
2022/01/26 08:18:37;;;;;;;50.30;15.17;;;;;;;-145.69;100.00;74256.88;5012220;28;20236;-77
2022/01/26 08:21:05;;;;;;;42.87;13.13;;;;;;;-145.69;100.00;74266.84;5012487;28;20659;-78
2022/01/26 08:23:32;;;;;;;45.30;14.97;;;;;;;-145.69;100.00;74250.91;5012231;28;20291;-78
2022/01/26 08:26:00;;;;;;;45.00;14.63;;;;;;;-145.69;100.00;74236.97;5012282;28;20197;-78
2022/01/26 08:28:31;;;;;;;45.60;14.83;;;;;;;-145.69;100.00;74213.06;5012183;28;20205;-77
2022/01/26 08:30:58;;;;;;;62.10;16.33;;;;;;;-145.69;100.00;74217.06;5012204;28;20228;-77
2022/01/26 08:33:24;;;;;;;52.60;15.30;;;;;;;-145.69;100.00;74236.97;5016523;28;20202;-78
2022/01/26 08:35:51;;;;;;;42.63;14.70;;;;;;;-145.69;100.00;74225.03;5031817;28;20213;-78
2022/01/26 08:38:19;;;;;;;50.07;16.23;;;;;;;-145.69;100.00;74209.09;5031692;28;20669;-79
2022/01/26 08:40:46;;;;;;;47.03;15.23;;;;;;;-145.69;100.00;74197.13;5031042;28;20664;-77
2022/01/26 08:43:14;;;;;;;44.93;14.87;;;;;;;-145.69;100.00;74175.22;5028134;28;20204;-78
2022/01/26 08:45:41;;;;;;;47.80;14.37;;;;;;;-145.69;100.00;74161.28;5031872;28;20208;-78
2022/01/26 08:48:08;;;;;;;42.83;13.47;;;;;;;-145.69;100.00;74161.28;5031708;28;20571;-77
2022/01/26 08:50:35;;;;;;;41.17;13.63;;;;;;;-145.69;100.00;74151.34;5031420;28;20231;-78
2022/01/26 08:53:01;;;;;;;42.77;12.90;;;;;;;-145.69;100.00;74133.41;5031524;28;20204;-78
2022/01/26 08:55:28;;;;;;;39.87;13.07;;;;;;;-145.69;100.00;74113.50;5031313;28;20197;-78
2022/01/26 08:57:54;;;;;;;49.13;15.63;;;;;;;-145.69;100.00;74087.63;5031514;28;20847;-78
2022/01/26 09:00:22;;;;;;;49.30;13.93;;;;;;;-145.69;100.00;74055.75;5031418;28;20212;-78
2022/01/26 09:02:51;;;;;;;45.70;15.00;;;;;;;-145.69;100.00;74009.97;5031159;28;20200;-78
2022/01/26 09:05:17;;;;;;;33.83;13.20;;;;;;;-145.69;100.00;73934.31;5011530;28;20204;-77
2022/01/26 09:07:45;;;;;;;34.23;13.37;;;;;;;-145.69;100.00;73906.44;5011541;28;20223;-78
2022/01/26 09:10:12;;;;;;;30.73;12.43;;;;;;;-145.69;100.00;73886.50;5011259;28;20684;-78
2022/01/26 09:12:42;;;;;;;34.33;13.63;;;;;;;-145.69;100.00;73866.59;5011471;28;20208;-78
2022/01/26 09:15:10;;;;;;;34.83;13.80;;;;;;;-145.69;100.00;73862.63;5011373;28;20223;-80
2022/01/26 09:17:39;;;;;;;42.50;14.50;;;;;;;-145.69;100.00;73874.56;5011560;28;20204;-78
2022/01/26 09:20:08;;;;;;;46.50;14.63;;;;;;;-145.69;100.00;73838.72;5011155;28;20663;-78
2022/01/26 09:22:34;;;;;;;31.00;11.80;;;;;;;-145.69;100.00;73806.88;5011889;28;20198;-78
2022/01/26 09:25:01;;;;;;;29.00;10.07;;;;;;;-145.69;100.00;73786.97;5030846;28;20204;-78
2022/01/26 09:27:27;;;;;;;28.93;11.30;;;;;;;-145.69;100.00;73784.97;5031207;28;20204;-78
2022/01/26 09:29:54;;;;;;;28.70;10.90;;;;;;;-145.69;100.00;73777.00;5030878;28;20325;-76
2022/01/26 09:32:22;;;;;;;30.90;10.70;;;;;;;-145.69;100.00;73765.06;5030928;28;20299;-78
2022/01/26 09:34:49;;;;;;;30.07;10.90;;;;;;;-145.69;100.00;73755.09;5030804;28;20570;-78
2022/01/26 09:37:17;;;;;;;26.10;10.23;;;;;;;-145.69;100.00;73747.13;5030664;28;20214;-77
2022/01/26 09:39:46;;;;;;;28.23;11.30;;;;;;;-145.69;100.00;73747.13;5030700;28;20204;-77
2022/01/26 09:42:13;;;;;;;24.77;11.33;;;;;;;-145.69;99.65;73743.16;5030694;28;20223;-78
2022/01/26 09:44:40;;;;;;;28.00;11.10;;;;;;;-145.69;98.86;73743.16;5030689;28;20298;-77
2022/01/26 09:47:07;;;;;;;24.73;11.13;;;;;;;-145.69;99.13;73753.13;5030492;28;20204;-77
2022/01/26 09:49:34;;;;;;;29.03;11.43;;;;;;;-145.69;97.34;73745.16;5030953;28;20261;-78
2022/01/26 09:52:07;;;;;;;24.57;10.90;;;;;;;-145.69;99.52;73755.09;5016417;28;20236;-77
2022/01/26 09:54:33;;;;;;;31.03;11.30;;;;;;;-145.69;100.00;73771.03;5010846;28;20208;-78
2022/01/26 09:57:03;;;;;;;28.13;11.30;;;;;;;-145.69;100.00;73788.94;5010923;28;20200;-78
2022/01/26 09:59:30;;;;;;;31.97;12.97;;;;;;;-145.69;100.00;73790.94;5009818;28;20208;-78
2022/01/26 10:01:58;;;;;;;29.03;12.03;;;;;;;-145.69;100.00;73794.94;5008726;28;20683;-78
2022/01/26 10:04:27;;;;;;;35.47;13.77;;;;;;;-145.69;100.00;73773.03;5008657;28;20234;-77
2022/01/26 10:07:05;;;;;;;30.73;12.93;;;;;;;-145.69;100.00;73769.03;5008895;28;20201;-77
2022/01/26 10:09:56;;;;;;;27.97;11.63;;;;;;;-145.69;100.00;73773.03;5008808;28;20208;-79
2022/01/26 10:15:29;;;;;;;27.13;11.50;;;;;;;-145.69;100.00;73741.16;5009836;28;20200;-77
2022/01/26 10:18:06;;;;;;;34.90;13.10;;;;;;;-145.69;100.00;73747.13;5010458;28;20291;-77
2022/01/26 10:20:44;;;;;;;33.13;11.90;;;;;;;-145.69;100.00;73741.16;5010499;28;20213;-78
2022/01/26 10:23:16;;;;;;;32.50;13.17;;;;;;;-145.69;100.00;73719.25;5010578;28;20258;-78
2022/01/26 10:25:44;;;;;;;28.80;13.17;;;;;;;-145.69;100.00;73697.38;5010536;28;20197;-78
2022/01/26 10:28:11;;;;;;;29.97;12.70;;;;;;;-145.69;100.00;73697.38;5010494;28;20613;-78
2022/01/26 10:30:44;;;;;;;32.10;11.93;;;;;;;-145.69;100.00;73691.38;5010158;28;20227;-78
2022/01/26 10:33:11;;;;;;;33.63;13.37;;;;;;;-145.69;100.00;73683.44;5010438;28;20208;-79
2022/01/26 10:35:38;;;;;;;31.70;13.53;;;;;;;-145.69;100.00;73683.44;5010226;28;20668;-79
2022/01/26 10:38:05;;;;;;;32.80;12.30;;;;;;;-145.69;100.00;73683.44;5010421;28;20201;-79
2022/01/26 10:40:35;;;;;;;30.23;13.23;;;;;;;-145.69;100.00;73689.41;5010376;28;20205;-78
2022/01/26 10:43:06;;;;;;;27.20;11.47;;;;;;;-145.69;100.00;73699.34;5010432;28;20239;-78
2022/01/26 10:45:45;;;;;;;26.23;10.43;;;;;;;-145.69;100.00;73679.44;5010168;28;20208;-79
2022/01/26 10:48:22;;;;;;;25.67;9.20;;;;;;;-145.69;100.00;73667.50;5010567;28;20203;-79
2022/01/26 10:51:20;;;;;;;18.30;7.37;;;;;;;-145.69;99.66;73645.59;5011208;28;20224;-78
2022/01/26 10:53:49;;;;;;;18.20;6.70;;;;;;;-145.69;97.47;73625.69;5010064;28;20284;-79
2022/01/26 10:56:18;;;;;;;9.37;5.33;;;;;;;-145.69;93.63;73609.75;5010072;28;20235;-79
2022/01/26 10:58:45;;;;;;;15.83;6.13;;;;;;;-145.69;83.09;73571.94;5010067;28;20205;-79
2022/01/26 11:01:11;;;;;;;12.33;5.30;;;;;;;-145.69;84.53;73532.13;5009877;28;20663;-79
2022/01/26 11:03:39;;;;;;;14.17;6.00;;;;;;;-145.69;83.16;73524.16;5014645;28;20195;-81
2022/01/26 11:06:07;;;;;;;11.10;5.47;;;;;;;-145.69;91.32;73522.16;5033254;28;20200;-79
2022/01/26 11:08:38;;;;;;;11.47;4.87;;;;;;;-145.69;78.53;73494.28;5033098;28;20211;-78
2022/01/26 11:11:04;;;;;;;13.77;4.10;;;;;;;-145.69;76.85;73474.38;5032980;28;20702;-78
2022/01/26 11:13:39;;;;;;;10.00;4.70;;;;;;;-145.69;80.88;73460.44;5032922;28;20214;-79
2022/01/26 11:16:09;;;;;;;10.53;5.20;;;;;;;-145.69;78.75;73454.47;5032991;28;20565;-78
2022/01/26 11:18:51;;;;;;;12.70;4.97;;;;;;;-145.69;77.86;73436.56;5032696;28;20281;-78
2022/01/26 11:21:29;;;;;;;8.53;4.37;;;;;;;-145.69;72.15;73416.66;5032756;28;20212;-79
2022/01/26 11:24:18;;;;;;;8.10;3.60;;;;;;;-145.69;67.03;73388.78;5032644;28;20200;-79
2022/01/26 11:26:45;;;;;;;9.07;3.37;;;;;;;-145.69;69.84;73368.88;5031327;28;20265;-78
2022/01/26 11:29:18;;;;;;;13.47;3.57;;;;;;;-145.69;69.79;73358.91;5032051;28;20204;-78
2022/01/26 11:31:46;;;;;;;7.53;3.60;;;;;;;-145.69;65.22;73366.88;5032788;28;20605;-78
2022/01/26 11:34:13;;;;;;;8.23;4.03;;;;;;;-145.69;71.59;73368.88;5024343;28;20420;-78
2022/01/26 11:36:43;;;;;;;8.20;3.80;;;;;;;-145.69;58.94;73372.84;5012776;28;20246;-78
2022/01/26 11:45:11;;;;;;;6.37;2.93;;;;;;;-145.69;56.82;73313.13;5031621;28;20265;-77
2022/01/26 11:47:40;;;;;;;8.30;3.60;;;;;;;-145.69;53.57;73289.22;5032514;28;20196;-77
2022/01/26 11:50:14;;;;;;;7.07;3.50;;;;;;;-145.69;57.03;73277.28;5032486;28;20200;-78
2022/01/26 11:52:42;;;;;;;10.73;4.50;;;;;;;-145.69;57.43;73301.19;5032256;28;20226;-78
2022/01/26 11:55:26;;;;;;;8.00;4.10;;;;;;;-145.69;58.21;73297.19;5032863;28;20200;-78
2022/01/26 11:57:55;;;;;;;8.07;4.30;;;;;;;-145.69;54.53;73317.09;5032637;28;20204;-78
2022/01/26 12:00:41;;;;;;;10.37;4.57;;;;;;;-145.69;57.08;73311.13;5031072;28;20299;-78
2022/01/26 12:03:20;;;;;;;9.37;3.90;;;;;;;-145.69;55.21;73313.13;5028968;28;20201;-77
2022/01/26 12:05:47;;;;;;;7.33;3.50;;;;;;;-145.69;56.00;73317.09;5012135;28;20208;-77
2022/01/26 12:08:15;;;;;;;12.57;4.27;;;;;;;-145.69;53.63;73313.13;5012274;28;20204;-78
2022/01/26 12:10:44;;;;;;;6.87;3.43;;;;;;;-145.69;56.46;73297.19;5012242;28;20271;-78
2022/01/26 12:13:16;;;;;;;11.20;4.43;;;;;;;-145.69;58.03;73313.13;5012298;28;20228;-77
2022/01/26 12:15:49;;;;;;;11.20;4.37;;;;;;;-145.69;55.96;73309.13;5011742;28;20209;-77